createdAt,value
2019-01-22T00:01:07.197Z,-1.40
2019-01-22T00:03:35.004Z,-1.50
2019-01-22T00:06:05.140Z,-1.40
2019-01-22T00:08:34.245Z,-1.40
2019-01-22T00:11:03.232Z,-1.40
2019-01-22T00:13:31.733Z,-1.40
2019-01-22T00:16:04.975Z,-1.40
2019-01-22T00:18:32.946Z,-1.50
2019-01-22T00:21:04.079Z,-1.50
2019-01-22T00:23:32.591Z,-1.50
2019-01-22T00:26:03.720Z,-1.60
2019-01-22T00:28:32.019Z,-1.60
2019-01-22T00:31:00.960Z,-1.70
2019-01-22T00:33:30.823Z,-1.80
2019-01-22T00:35:58.596Z,-1.70
2019-01-22T00:38:27.728Z,-1.70
2019-01-22T00:40:56.770Z,-1.60
2019-01-22T00:43:25.807Z,-1.60
2019-01-22T00:45:54.139Z,-1.60
2019-01-22T00:48:25.007Z,-1.80
2019-01-22T00:50:52.641Z,-1.80
2019-01-22T00:53:21.017Z,-1.70
2019-01-22T00:55:48.767Z,-1.60
2019-01-22T00:58:16.830Z,-1.60
2019-01-22T01:00:45.031Z,-1.60
2019-01-22T01:03:14.342Z,-1.60
2019-01-22T01:05:42.889Z,-1.60
2019-01-22T01:08:11.499Z,-1.50
2019-01-22T01:10:39.744Z,-1.60
2019-01-22T01:13:07.838Z,-1.70
2019-01-22T01:15:36.344Z,-1.70
2019-01-22T01:23:04.294Z,-1.70
2019-01-22T01:25:32.397Z,-1.90
2019-01-22T01:32:58.328Z,-2.10
2019-01-22T01:35:29.302Z,-2.10
2019-01-22T01:40:45.283Z,-1.90
2019-01-22T01:43:13.174Z,-2.10
2019-01-22T01:45:41.979Z,-2.00
2019-01-22T01:50:38.506Z,-2.10
2019-01-22T01:53:06.482Z,-2.00
2019-01-22T01:55:34.863Z,-1.90
2019-01-22T01:58:03.446Z,-1.80
2019-01-22T02:00:31.847Z,-1.80
2019-01-22T02:05:29.252Z,-2.00
2019-01-22T02:07:57.291Z,-1.90
2019-01-22T02:10:26.328Z,-1.90
2019-01-22T02:13:00.910Z,-2.00
2019-01-22T02:18:52.119Z,-2.10
2019-01-22T02:22:10.144Z,-2.20
2019-01-22T02:27:55.079Z,-2.30
2019-01-22T02:30:49.713Z,-2.30
2019-01-22T02:36:16.471Z,-2.20
2019-01-22T02:39:13.375Z,-2.10
2019-01-22T02:42:16.427Z,-2.10
2019-01-22T02:45:28.002Z,-2.10
2019-01-22T02:48:03.818Z,-2.10
2019-01-22T02:50:52.789Z,-2.20
2019-01-22T02:53:40.314Z,-2.20
2019-01-22T02:56:42.022Z,-2.20
2019-01-22T02:59:50.705Z,-2.20
2019-01-22T03:02:59.964Z,-2.20
2019-01-22T03:05:54.939Z,-2.20
2019-01-22T03:09:11.075Z,-2.20
2019-01-22T03:12:32.951Z,-2.20
2019-01-22T03:15:44.243Z,-2.20
2019-01-22T03:18:49.345Z,-2.20
2019-01-22T03:21:50.563Z,-2.20
2019-01-22T03:24:47.480Z,-2.20
2019-01-22T03:27:55.165Z,-2.20
2019-01-22T03:31:20.308Z,-2.30
2019-01-22T03:34:18.780Z,-2.30
2019-01-22T03:40:07.468Z,-2.60
2019-01-22T03:43:31.143Z,-2.60
2019-01-22T03:46:11.824Z,-2.60
2019-01-22T03:48:59.550Z,-2.70
2019-01-22T03:52:04.978Z,-2.70
2019-01-22T03:55:21.623Z,-2.80
2019-01-22T03:57:59.013Z,-2.70
2019-01-22T04:00:34.840Z,-2.60
2019-01-22T04:03:05.074Z,-2.60
2019-01-22T04:05:33.131Z,-2.60
2019-01-22T04:10:38.720Z,-2.60
2019-01-22T04:13:07.208Z,-2.50
2019-01-22T04:15:38.748Z,-2.50
2019-01-22T04:18:07.985Z,-2.40
2019-01-22T04:20:37.716Z,-2.30
2019-01-22T04:23:17.087Z,-2.30
2019-01-22T04:26:18.433Z,-2.30
2019-01-22T04:29:20.913Z,-2.30
2019-01-22T04:31:55.231Z,-2.30
2019-01-22T04:34:39.083Z,-2.30
2019-01-22T04:37:38.078Z,-2.20
2019-01-22T04:40:30.525Z,-2.30
2019-01-22T04:43:08.329Z,-2.30
2019-01-22T04:45:49.863Z,-2.30
2019-01-22T04:48:43.452Z,-2.20
2019-01-22T04:51:54.279Z,-2.20
2019-01-22T04:54:33.621Z,-2.20
2019-01-22T04:57:10.679Z,-2.20
2019-01-22T05:00:10.999Z,-2.20
2019-01-22T05:03:08.384Z,-2.20
2019-01-22T05:06:08.604Z,-2.20
2019-01-22T05:09:07.188Z,-2.20
2019-01-22T05:12:17.842Z,-2.50
2019-01-22T05:15:48.899Z,-2.50
2019-01-22T05:18:42.957Z,-2.50
2019-01-22T05:21:33.288Z,-2.50
2019-01-22T05:24:23.868Z,-2.40
2019-01-22T05:27:29.545Z,-2.40
2019-01-22T05:33:24.766Z,-2.50
2019-01-22T05:36:40.244Z,-2.60
2019-01-22T05:39:57.369Z,-2.70
2019-01-22T05:43:06.160Z,-2.60
2019-01-22T05:46:00.380Z,-2.70
2019-01-22T05:48:55.871Z,-2.70
2019-01-22T05:51:47.349Z,-2.60
2019-01-22T05:54:53.063Z,-2.50
2019-01-22T05:58:20.083Z,-2.60
2019-01-22T06:01:02.235Z,-2.70
2019-01-22T06:04:01.047Z,-2.70
2019-01-22T06:07:22.493Z,-2.70
2019-01-22T06:10:24.020Z,-2.70
2019-01-22T06:13:27.444Z,-2.50
2019-01-22T06:16:37.106Z,-2.40
2019-01-22T06:22:27.288Z,-2.40
2019-01-22T06:25:19.526Z,-2.40
2019-01-22T06:28:00.249Z,-2.30
2019-01-22T06:31:11.377Z,-2.50
2019-01-22T06:34:36.760Z,-2.50
2019-01-22T06:37:18.668Z,-2.50
2019-01-22T06:40:20.251Z,-2.50
2019-01-22T06:43:33.990Z,-2.50
2019-01-22T06:46:40.973Z,-2.40
2019-01-22T06:49:39.680Z,-2.40
2019-01-22T06:53:11.639Z,-2.40
2019-01-22T06:56:48.183Z,-2.40
2019-01-22T06:59:36.953Z,-2.40
2019-01-22T07:02:30.100Z,-2.40
2019-01-22T07:05:16.166Z,-2.40
2019-01-22T07:08:23.097Z,-2.40
2019-01-22T07:11:16.855Z,-2.30
2019-01-22T07:14:15.306Z,-2.30
2019-01-22T07:17:18.954Z,-2.30
2019-01-22T07:20:25.401Z,-2.40
2019-01-22T07:23:09.391Z,-2.20
2019-01-22T07:25:58.770Z,-2.30
2019-01-22T07:28:56.411Z,-2.30
2019-01-22T07:32:12.013Z,-2.40
2019-01-22T07:35:21.799Z,-2.40
2019-01-22T07:38:10.626Z,-2.40
2019-01-22T07:41:17.304Z,-2.70
2019-01-22T07:44:48.571Z,-2.60
2019-01-22T07:47:44.664Z,-2.60
2019-01-22T07:50:43.724Z,-2.80
2019-01-22T07:53:25.291Z,-2.80
2019-01-22T07:56:36.667Z,-3.00
2019-01-22T07:59:19.783Z,-3.10
2019-01-22T08:02:30.896Z,-3.20
2019-01-22T08:05:49.594Z,-3.00
2019-01-22T08:08:51.802Z,-3.10
2019-01-22T08:12:04.351Z,-3.20
2019-01-22T08:15:17.001Z,-3.00
2019-01-22T08:18:16.316Z,-2.90
2019-01-22T08:21:14.407Z,-2.70
2019-01-22T08:24:26.785Z,-2.60
2019-01-22T08:29:51.020Z,-2.50
2019-01-22T08:35:45.460Z,-2.40
2019-01-22T08:38:52.835Z,-2.40
2019-01-22T08:42:04.607Z,-2.30
2019-01-22T08:45:11.623Z,-2.20
2019-01-22T08:48:27.762Z,-2.10
2019-01-22T08:51:11.807Z,-2.00
2019-01-22T08:54:20.562Z,-2.10
2019-01-22T08:57:24.993Z,-2.20
2019-01-22T09:00:21.077Z,-2.20
2019-01-22T09:03:07.713Z,-2.20
2019-01-22T09:06:03.659Z,-2.40
2019-01-22T09:11:42.107Z,-2.20
2019-01-22T09:14:48.829Z,-2.20
2019-01-22T09:17:42.248Z,-2.20
2019-01-22T09:20:53.317Z,-2.30
2019-01-22T09:23:47.823Z,-2.30
2019-01-22T09:26:43.932Z,-2.20
2019-01-22T09:30:02.467Z,-2.00
2019-01-22T09:33:12.574Z,-2.10
2019-01-22T09:35:56.395Z,-2.10
2019-01-22T09:38:24.150Z,-2.30
2019-01-22T09:40:53.899Z,-2.30
2019-01-22T09:43:21.538Z,-2.20
2019-01-22T09:45:50.044Z,-2.10
2019-01-22T09:48:17.976Z,-2.10
2019-01-22T09:50:46.389Z,-2.10
2019-01-22T09:53:14.126Z,-2.10
2019-01-22T09:55:41.888Z,-2.10
2019-01-22T09:58:10.363Z,-2.00
2019-01-22T10:00:42.240Z,-2.00
2019-01-22T10:05:40.688Z,-1.90
2019-01-22T10:08:11.708Z,-1.70
2019-01-22T10:10:39.091Z,-1.70
2019-01-22T10:13:07.248Z,-1.70
2019-01-22T10:15:35.177Z,-1.70
2019-01-22T10:18:03.652Z,-1.70
2019-01-22T10:20:31.929Z,-1.70
2019-01-22T10:23:00.116Z,-1.50
2019-01-22T10:25:29.616Z,-1.40
2019-01-22T10:27:57.485Z,-1.30
2019-01-22T10:30:25.541Z,-1.30
2019-01-22T10:32:53.202Z,-1.30
2019-01-22T10:35:21.197Z,-1.30
2019-01-22T10:37:48.961Z,-1.30
2019-01-22T10:40:18.527Z,-1.40
2019-01-22T10:42:46.535Z,-1.60
2019-01-22T10:45:15.932Z,-1.40
2019-01-22T10:47:43.656Z,-1.60
2019-01-22T10:50:12.808Z,-1.50
2019-01-22T10:52:41.386Z,-1.60
2019-01-22T10:55:11.408Z,-1.60
2019-01-22T10:57:39.699Z,-1.60
2019-01-22T11:00:14.112Z,-1.60
2019-01-22T11:05:24.063Z,-1.50
2019-01-22T11:08:04.395Z,-1.50
2019-01-22T11:10:48.135Z,-1.40
2019-01-22T11:15:58.739Z,-1.50
2019-01-22T11:18:30.522Z,-1.40
2019-01-22T11:23:35.088Z,-1.30
2019-01-22T11:28:40.208Z,-1.50
2019-01-22T11:31:58.952Z,-1.60
2019-01-22T11:37:06.497Z,-1.40
2019-01-22T11:39:36.227Z,-1.30
2019-01-22T11:42:15.497Z,-1.20
2019-01-22T11:44:46.076Z,-1.30
2019-01-22T11:47:36.908Z,-1.20
2019-01-22T11:50:17.822Z,-1.30
2019-01-22T11:52:50.345Z,-1.30
2019-01-22T11:55:18.807Z,-1.20
2019-01-22T11:57:47.255Z,-1.20
2019-01-22T12:00:46.691Z,-1.20
2019-01-22T12:06:02.745Z,-1.20
2019-01-22T12:08:31.393Z,-1.20
2019-01-22T12:11:00.017Z,-1.30
2019-01-22T12:13:39.891Z,-1.20
2019-01-22T12:16:11.988Z,-1.00
2019-01-22T12:18:45.104Z,-1.10
2019-01-22T12:21:19.507Z,-1.10
2019-01-22T12:23:49.464Z,-1.10
2019-01-22T12:26:20.281Z,-1.10
2019-01-22T12:28:49.109Z,-1.00
2019-01-22T12:31:25.530Z,-1.00
2019-01-22T12:34:00.455Z,-0.90
2019-01-22T12:36:34.992Z,-0.90
2019-01-22T12:39:07.080Z,-0.90
2019-01-22T12:41:38.055Z,-0.80
2019-01-22T12:44:08.098Z,-0.80
2019-01-22T12:46:41.641Z,-0.70
2019-01-22T12:49:15.889Z,-0.70
2019-01-22T12:51:54.553Z,-0.80
2019-01-22T12:54:54.870Z,-0.80
2019-01-22T12:57:22.564Z,-0.90
2019-01-22T12:59:51.311Z,-1.00
2019-01-22T13:02:19.413Z,-0.90
2019-01-22T13:04:50.334Z,-1.00
2019-01-22T13:07:43.230Z,-0.80
2019-01-22T13:10:20.429Z,1.50
2019-01-22T13:12:49.135Z,-1.00
2019-01-22T13:15:28.415Z,-1.00
2019-01-22T13:17:57.158Z,-1.00
2019-01-22T13:20:30.368Z,-0.90
2019-01-22T13:22:59.356Z,-0.80
2019-01-22T13:25:42.118Z,-0.90
2019-01-22T13:28:16.866Z,-0.80
2019-01-22T13:30:45.930Z,-0.70
2019-01-22T13:33:14.146Z,-0.70
2019-01-22T13:35:42.230Z,-0.70
2019-01-22T13:38:12.672Z,-0.70
2019-01-22T13:40:40.523Z,-0.80
2019-01-22T13:43:08.482Z,-0.80
2019-01-22T13:45:36.505Z,-0.90
2019-01-22T13:48:05.327Z,-0.80
2019-01-22T13:50:33.419Z,-0.80
2019-01-22T13:53:01.607Z,-0.80
2019-01-22T13:55:32.494Z,-0.80
2019-01-22T13:58:00.678Z,-0.90
2019-01-22T14:00:29.636Z,-0.70
2019-01-22T14:02:59.187Z,-0.70
2019-01-22T14:05:29.138Z,-0.60
2019-01-22T14:08:16.500Z,-0.70
2019-01-22T14:11:01.008Z,-0.70
2019-01-22T14:13:29.930Z,-0.80
2019-01-22T14:16:06.432Z,-0.80
2019-01-22T14:22:03.467Z,-0.70
2019-01-22T14:27:09.923Z,-0.70
2019-01-22T14:29:48.899Z,-0.80
2019-01-22T14:32:21.358Z,-0.60
2019-01-22T14:35:00.259Z,-0.60
2019-01-22T14:37:29.048Z,-0.70
2019-01-22T14:40:02.106Z,-0.70
2019-01-22T14:42:38.650Z,-0.70
2019-01-22T14:45:18.183Z,-0.60
2019-01-22T14:47:59.923Z,-0.60
2019-01-22T14:50:30.905Z,-0.60
2019-01-22T14:53:34.086Z,-0.60
2019-01-22T14:56:16.258Z,-0.60
2019-01-22T14:58:53.209Z,-0.60
2019-01-22T15:01:51.556Z,-0.60
2019-01-22T15:04:39.701Z,-0.70
2019-01-22T15:07:18.996Z,-0.70
2019-01-22T15:09:46.503Z,-0.80
2019-01-22T15:12:41.718Z,-0.70
2019-01-22T15:15:13.239Z,-0.60
2019-01-22T15:17:44.846Z,-0.70
2019-01-22T15:20:23.617Z,-0.70
2019-01-22T15:22:56.172Z,-0.70
2019-01-22T15:25:26.628Z,-0.60
2019-01-22T15:27:59.090Z,-0.60
2019-01-22T15:30:33.455Z,-0.70
2019-01-22T15:33:05.680Z,-0.60
2019-01-22T15:35:48.874Z,-0.60
2019-01-22T15:38:39.812Z,-0.50
2019-01-22T15:41:31.683Z,-0.60
2019-01-22T15:44:08.198Z,-0.50
2019-01-22T15:46:48.183Z,-0.40
2019-01-22T15:49:37.828Z,-0.40
2019-01-22T15:52:06.932Z,-0.50
2019-01-22T15:54:44.460Z,-0.50
2019-01-22T15:57:16.411Z,-0.50
2019-01-22T15:59:48.246Z,-0.50
2019-01-22T16:02:33.230Z,-0.40
2019-01-22T16:05:40.662Z,-0.50
2019-01-22T16:08:23.229Z,-0.50
2019-01-22T16:16:16.742Z,-0.50
2019-01-22T16:18:48.174Z,-0.50
2019-01-22T16:21:20.263Z,-0.40
2019-01-22T16:23:48.335Z,-0.40
2019-01-22T16:26:17.092Z,-0.20
2019-01-22T16:28:48.339Z,-0.40
2019-01-22T16:31:19.577Z,-0.40
2019-01-22T16:33:53.278Z,-0.50
2019-01-22T16:36:22.008Z,-0.40
2019-01-22T16:38:51.357Z,-0.40
2019-01-22T16:41:19.271Z,-0.40
2019-01-22T16:43:49.126Z,-0.50
2019-01-22T16:48:44.847Z,-0.50
2019-01-22T16:51:12.913Z,-0.50
2019-01-22T16:53:43.586Z,-0.50
2019-01-22T16:56:11.947Z,-0.50
2019-01-22T16:58:40.692Z,-0.50
2019-01-22T17:01:08.523Z,-0.40
2019-01-22T17:03:37.965Z,-0.50
2019-01-22T17:06:05.759Z,-0.50
2019-01-22T17:11:04.277Z,-0.40
2019-01-22T17:13:34.960Z,-0.30
2019-01-22T17:16:03.797Z,-0.30
2019-01-22T17:18:32.437Z,-0.20
2019-01-22T17:21:00.928Z,-0.20
2019-01-22T17:25:59.588Z,-0.20
2019-01-22T17:28:27.439Z,-0.20
2019-01-22T17:30:55.816Z,-0.20
2019-01-22T17:33:52.846Z,-0.20
2019-01-22T17:36:20.728Z,-0.20
2019-01-22T17:38:49.978Z,-0.10
2019-01-22T17:41:23.874Z,-0.10
2019-01-22T17:43:52.256Z,-0.10
2019-01-22T17:46:22.119Z,-0.10
2019-01-22T17:48:50.522Z,-0.10
2019-01-22T17:51:22.283Z,-0.10
2019-01-22T17:53:50.945Z,-0.10
2019-01-22T18:03:42.728Z,-0.20
2019-01-22T18:06:10.579Z,-0.20
2019-01-22T18:08:39.064Z,-0.30
2019-01-22T18:11:08.289Z,-0.10
2019-01-22T18:13:36.552Z,-0.10
2019-01-22T18:16:05.119Z,-0.20
2019-01-22T18:18:33.969Z,-0.20
2019-01-22T18:23:31.504Z,-0.20
2019-01-22T18:25:59.111Z,-0.20
2019-01-22T18:35:50.357Z,0.00
2019-01-22T18:38:36.645Z,0.00
2019-01-22T18:43:32.370Z,0.00
2019-01-22T18:46:00.696Z,0.10
2019-01-22T18:48:29.194Z,-0.10
2019-01-22T18:50:57.968Z,-0.10
2019-01-22T18:59:05.745Z,-0.10
2019-01-22T19:01:35.328Z,-0.20
2019-01-22T19:04:23.495Z,-0.30
2019-01-22T19:06:56.450Z,-0.30
2019-01-22T19:09:24.078Z,-0.20
2019-01-22T19:17:17.045Z,-0.20
2019-01-22T19:19:49.907Z,-0.20
2019-01-22T19:22:18.425Z,-0.20
2019-01-22T19:24:46.826Z,-0.10
2019-01-22T19:27:15.561Z,-0.10
2019-01-22T19:29:44.617Z,-0.10
2019-01-22T19:32:34.023Z,0.00
2019-01-22T19:35:04.175Z,0.00
2019-01-22T19:37:31.987Z,0.00
2019-01-22T19:40:00.678Z,0.10
2019-01-22T19:42:29.455Z,0.00
2019-01-22T19:47:26.022Z,0.10
2019-01-22T19:52:24.129Z,0.20
2019-01-22T19:54:53.459Z,0.30
2019-01-22T19:57:21.635Z,0.30
2019-01-22T20:02:37.216Z,0.30
2019-01-22T20:05:06.240Z,0.20
2019-01-22T20:07:43.787Z,0.30
2019-01-22T20:10:13.176Z,0.20
2019-01-22T20:12:41.387Z,0.20
2019-01-22T20:17:38.103Z,0.20
2019-01-22T20:20:09.652Z,0.20
2019-01-22T20:22:38.984Z,0.20
2019-01-22T20:25:07.901Z,0.20
2019-01-22T20:27:36.052Z,0.30
2019-01-22T20:30:07.346Z,0.30
2019-01-22T20:35:04.703Z,0.20
2019-01-22T20:37:33.090Z,0.20
2019-01-22T20:44:07.706Z,0.20
2019-01-22T20:47:20.248Z,0.30
2019-01-22T20:53:06.197Z,0.10
2019-01-22T20:55:52.175Z,0.10
2019-01-22T20:58:40.381Z,0.10
2019-01-22T21:01:59.820Z,0.20
2019-01-22T21:07:56.058Z,0.20
2019-01-22T21:11:04.789Z,0.20
2019-01-22T21:13:43.989Z,0.10
2019-01-22T21:16:37.959Z,0.10
2019-01-22T21:19:33.610Z,0.10
2019-01-22T21:22:03.272Z,0.10
2019-01-22T21:24:59.367Z,0.10
2019-01-22T21:37:09.229Z,0.30
2019-01-22T22:13:04.796Z,0.20
2019-01-22T22:18:07.312Z,0.00
2019-01-22T22:30:37.367Z,0.00
2019-01-22T22:35:34.493Z,0.10
2019-01-22T22:38:02.476Z,0.10
2019-01-22T22:47:57.751Z,0.00
2019-01-22T22:52:54.550Z,0.10
2019-01-22T22:57:50.109Z,0.10
2019-01-22T23:03:09.828Z,0.00
2019-01-22T23:08:06.057Z,-0.10
2019-01-22T23:10:34.625Z,-0.20
2019-01-22T23:13:02.654Z,-0.30
2019-01-22T23:15:31.146Z,0.00
2019-01-22T23:22:56.272Z,-0.20
2019-01-22T23:42:38.971Z,-0.10
2019-01-22T23:45:07.786Z,-0.40
2019-01-22T23:50:05.318Z,-0.10
2019-01-22T23:52:32.746Z,-0.10
2019-01-22T23:59:56.744Z,-0.10
